AirNav   Everest Fuels
 
 478 users online  

64CL Goodyear Blimp Base Airport
Carson, California, USA

GOING TO CARSON?


FAA INFORMATION EFFECTIVE 03 NOVEMBER 2022

Location

FAA Identifier: 64CL
Lat/Long: 33-51-18.0000N 118-16-34.2000W
33-51.300000N 118-16.570000W
33.8550000,-118.2761667
(estimated)
Elevation: 21 ft. / 6 m (estimated)
Variation: 13E (2005)
From city: 1 mile SW of CARSON, CA
Time zone: UTC -8 (UTC -7 during Daylight Saving Time)
Zip code: 90746

Airport Operations

Airport use: Private use. Permission required prior to landing
Activation date: 01/1968
Control tower: no
ARTCC: LOS ANGELES CENTER
FSS: HAWTHORNE FLIGHT SERVICE STATION
NOTAMs facility: FDC (NOTAM-D service not available)
Attendance: IREG
Wind indicator: yes
Segmented circle: no

Airport Communications

WX AWOS-3PT at CPM (2.6 nm NE): 127.150 (310-631-3022)
WX ASOS at HHR (5 nm NW): PHONE 310-973-8930
WX ASOS at LGB (7 nm E): PHONE 562-424-0572
WX ASOS at LAX (8 nm NW): PHONE 310-568-1486
WX ASOS at SMO (13 nm NW): PHONE 310-392-6453
WX ASOS at FUL (15 nm E): PHONE 714-870-1372
WX AWOS-3PT at EMT (18 nm NE): 118.75 ((626) 444-1107)

Nearby radio navigation aids

VOR radial/distance  VOR name  Freq  Var
LAXr106/9.1LOS ANGELES VORTAC113.6015E
SLIr276/11.8SEAL BEACH VORTAC115.7015E
SMOr121/12.9SANTA MONICA VOR/DME110.8015E
VNYr139/24.6VAN NUYS VOR/DME113.1015E
POMr226/27.8POMONA VORTAC110.4015E
ELBr278/29.2EL TORO VOR/DME117.2014E
SXCr359/29.7SANTA CATALINA VORTAC114.1515E
PDZr249/37.4PARADISE VORTAC112.2015E

Airport Services

Fuel available: 100
Airframe service: MINOR
Powerplant service: MINOR

Runway Information

Helipad H1

Dimensions: 1200 x 900 ft. / 366 x 274 m
Surface: turf
COMPOSITE HARD SURFACE
Latitude: 33-51.300000N
Longitude: 118-16.570000W
Elevation: 21.0 ft.
Traffic pattern: leftleft

Airport Ownership and Management from official FAA records

Ownership: Privately-owned
Owner: GOODYEAR TR & RBR CO
200 INNOVATION WAY
AKRON, OH 44316-0001
Phone (330) 796-2121
Manager: MICHAEL DOUGHERTY
841 WINGFOOT LAKE RD
MOGADORE, OH 44260
Phone (330) 796-9090
OR CELL: 330-322-2513

Airport Operational Statistics

Aircraft based on the field: 1
Multi engine airplanes: 1
  • BLIMP
    

Additional Remarks

PLINES SW BOUNDARIES.
FOR CD CTC LOS ANGELES ARTCC AT 661-575-2079.

Instrument Procedures

There are no published instrument procedures at 64CL.

Some nearby airports with instrument procedures:

KTOA - Zamperini Field Airport (4 nm SW)
KHHR - Jack Northrop Field/Hawthorne Municipal Airport (5 nm NW)
KLGB - Long Beach Airport (Daugherty Field) (7 nm E)
KLAX - Los Angeles International Airport (8 nm NW)
KSLI - Los Alamitos Army Airfield (12 nm E)
KSMO - Santa Monica Municipal Airport (13 nm NW)
KFUL - Fullerton Municipal Airport (15 nm E)
KEMT - San Gabriel Valley Airport (18 nm NE)
 
Loc | Ops | Rwys | IFR | FBO | Links
Com | Nav | Svcs | Stats | Notes
Area around 64CL (Goodyear Blimp Base Airport)
 
Road maps at: MapQuest Bing Google
 
Aerial photo
WARNING: Photo may not be current or correct
Aerial photo of 64CL (Goodyear Blimp Base Airport)
Taken in September 2006

Do you have a better or more recent aerial photo of Goodyear Blimp Base Airport that you would like to share? If so, please send us your photo.

 
Sectional chart

 
Airport distance calculator
Flying to Goodyear Blimp Base Airport? Find the distance to fly.

From to 64CL

Sunrise and sunset
Times for 28-Nov-2022
 Local
(UTC-8)
 Zulu
(UTC)
Morning civil twilight06:1114:11
Sunrise06:3814:38
Sunset16:4400:44
Evening civil twilight17:1101:11

Current date and time
Zulu (UTC)  28-Nov-2022 10:40:46
Local (UTC-8)  28-Nov-2022 02:40:46
 
METAR
KHHR 
5nm NW 
281006Z AUTO 09003KT 7SM SCT022 14/12 A2997 RMK AO2 T01440117
KTOA 
5nm SW 
280348Z 17004KT 10SM SCT020 BKN100 11/08 A3001 RMK LAST
KLGB 
7nm E 
280953Z AUTO 00000KT 7SM BKN016 13/11 A2997 RMK AO2 SLP149 T01330111
KLAX 
7nm NW 
280953Z 06004KT 5SM BR FEW008 BKN018 14/12 A2997 RMK AO2 SLP148 T01390122 $
KCQT 
12nm N 
281004Z AUTO 09003KT 7SM SCT023 14/13 A2997 RMK AO2 T01440128
KSMO 
13nm NW 
280951Z AUTO 00000KT 4SM BR OVC022 13/11 A2997 RMK AO2 SLP148 T01330111
KSLI 
13nm SE 
280555Z AUTO 00000KT 9SM CLR 14/13 A2998 RMK AO2 SLP155 T01350129 10173 20135 TSNO $
KFUL 
15nm E 
280953Z AUTO 07004KT 10SM SCT019 13/11 A2996 RMK AO2 SLP145 T01330111
KEMT 
18nm NE 
280245Z 00000KT 10SM CLR 15/06 A3001
TAF
KLGB 
7nm E 
280810Z 2808/2906 VRB03KT 5SM BR OVC015 FM281200 VRB03KT P6SM OVC022 FM282000 20007KT P6SM BKN250 FM290100 29008KT P6SM BKN250
KLAX 
7nm NW 
280904Z 2809/2912 VRB03KT 5SM BR SCT008 BKN015 FM281500 VRB03KT P6SM OVC022 FM281800 24006KT P6SM BKN015 FM282100 26012KT P6SM SCT015 BKN250 FM290400 VRB03KT P6SM BKN250
KSMO 
13nm NW 
280905Z 2809/2906 VRB03KT 6SM HZ SCT010 OVC021 FM281400 VRB03KT P6SM OVC022 FM282000 24008KT P6SM SCT015 BKN250 FM290200 VRB03KT P6SM BKN250
KSLI 
13nm SE 
280500Z 2805/2911 VRB06KT 9999 FEW220 QNH2998INS BECMG 2809/2810 VRB06KT 8000 BR BKN010 OVC017 QNH2989INS BECMG 2822/2823 VRB06KT 9999 NSW FEW024 QNH2984INS BECMG 2908/2909 VRB06KT 9000 BR BKN016 OVC023 QNH2984INS TX16/2823Z TN12/2911Z
NOTAMs
Click for the latest NOTAMs
NOTAMs are issued by the DoD/FAA and will open in a separate window not controlled by AirNav.

 

 
 

Would you like to see your business listed on this page?

 If your business provides an interesting product or service to pilots, flight crews, aircraft, or users of the Goodyear Blimp Base Airport, you should consider listing it here.  To start the listing process, click on the button below
 
Add a business
 

Other Pages about Goodyear Blimp Base Airport

Update a link
 
Copyright © AirNav, LLC. All rights reserved. Privacy Policy  Contact